createdAt,value
2019-03-24T00:01:14.850Z,39.74
2019-03-24T00:03:41.417Z,39.92
2019-03-24T00:06:08.032Z,40.17
2019-03-24T00:08:34.619Z,40.51
2019-03-24T00:11:01.225Z,39.81
2019-03-24T00:13:27.797Z,41.79
2019-03-24T00:15:54.397Z,39.95
2019-03-24T00:18:20.988Z,41.09
2019-03-24T00:20:47.584Z,42.38
2019-03-24T00:23:14.153Z,42.45
2019-03-24T00:25:40.751Z,41.71
2019-03-24T00:28:07.340Z,45.03
2019-03-24T00:30:33.934Z,43.21
2019-03-24T00:33:00.511Z,42.65
2019-03-24T00:35:27.166Z,41.87
2019-03-24T00:37:53.744Z,41.89
2019-03-24T00:40:20.439Z,41.76
2019-03-24T00:42:47.019Z,41.74
2019-03-24T00:45:13.620Z,41.36
2019-03-24T00:47:40.192Z,42.11
2019-03-24T00:50:06.776Z,41.57
2019-03-24T00:52:33.350Z,42.30
2019-03-24T00:54:59.917Z,41.92
2019-03-24T00:57:26.495Z,41.28
2019-03-24T00:59:53.073Z,41.23
2019-03-24T01:02:19.658Z,41.45
2019-03-24T01:04:46.219Z,41.65
2019-03-24T01:07:12.809Z,41.47
2019-03-24T01:09:39.380Z,41.37
2019-03-24T01:12:05.958Z,42.32
2019-03-24T01:14:32.539Z,43.10
2019-03-24T01:16:59.124Z,42.48
2019-03-24T01:19:25.697Z,42.86
2019-03-24T01:21:52.269Z,42.29
2019-03-24T01:24:18.854Z,42.80
2019-03-24T01:26:45.456Z,42.83
2019-03-24T01:29:12.035Z,43.23
2019-03-24T01:31:38.624Z,42.66
2019-03-24T01:34:05.206Z,42.88
2019-03-24T01:36:31.827Z,42.44
2019-03-24T01:38:58.395Z,42.95
2019-03-24T01:41:25.007Z,43.01
2019-03-24T01:43:51.562Z,43.08
2019-03-24T01:46:18.158Z,42.73
2019-03-24T01:48:44.735Z,42.38
2019-03-24T01:51:11.341Z,42.63
2019-03-24T01:53:37.921Z,42.63
2019-03-24T01:56:04.511Z,42.99
2019-03-24T01:58:31.085Z,43.63
2019-03-24T02:00:57.748Z,42.93
2019-03-24T02:03:24.327Z,42.70
2019-03-24T02:05:50.923Z,42.74
2019-03-24T02:08:17.504Z,42.72
2019-03-24T02:10:44.080Z,42.99
2019-03-24T02:13:10.656Z,43.09
2019-03-24T02:15:37.308Z,42.78
2019-03-24T02:18:03.894Z,42.67
2019-03-24T02:20:30.474Z,42.97
2019-03-24T02:22:57.045Z,42.83
2019-03-24T02:25:23.624Z,42.85
2019-03-24T02:27:50.211Z,43.50
2019-03-24T02:30:16.786Z,42.67
2019-03-24T02:32:43.361Z,42.87
2019-03-24T02:35:09.938Z,42.90
2019-03-24T02:37:36.560Z,43.43
2019-03-24T02:40:03.169Z,43.02
2019-03-24T02:42:29.733Z,42.94
2019-03-24T02:44:56.304Z,43.84
2019-03-24T02:47:22.879Z,43.77
2019-03-24T02:49:49.456Z,43.41
2019-03-24T02:52:16.031Z,44.22
2019-03-24T02:54:42.616Z,45.49
2019-03-24T02:57:09.186Z,45.86
2019-03-24T02:59:35.823Z,46.54
2019-03-24T03:02:02.452Z,46.59
2019-03-24T03:04:29.021Z,46.90
2019-03-24T03:06:55.627Z,47.98
2019-03-24T03:09:22.202Z,49.50
2019-03-24T03:11:48.811Z,48.60
2019-03-24T03:14:15.394Z,48.33
2019-03-24T03:16:42.033Z,48.38
2019-03-24T03:19:08.597Z,48.12
2019-03-24T03:21:35.206Z,49.09
2019-03-24T03:24:01.779Z,49.14
2019-03-24T03:26:28.401Z,49.33
2019-03-24T03:28:54.977Z,50.36
2019-03-24T03:31:21.569Z,50.77
2019-03-24T03:33:48.149Z,51.41
2019-03-24T03:36:14.789Z,54.18
2019-03-24T03:38:41.356Z,54.32
2019-03-24T03:41:07.938Z,55.67
2019-03-24T03:43:34.686Z,56.59
2019-03-24T03:46:01.273Z,54.92
2019-03-24T03:48:27.832Z,54.42
2019-03-24T03:50:54.416Z,54.08
2019-03-24T03:53:21.026Z,53.94
2019-03-24T03:55:47.596Z,54.35
2019-03-24T03:58:15.215Z,56.13
2019-03-24T04:00:41.789Z,55.33
2019-03-24T04:03:08.399Z,53.99
2019-03-24T04:05:34.977Z,54.35
2019-03-24T04:08:01.587Z,55.24
2019-03-24T04:10:28.158Z,55.55
2019-03-24T04:12:54.759Z,54.95
2019-03-24T04:15:21.342Z,53.72
2019-03-24T04:17:47.941Z,54.44
2019-03-24T04:20:14.663Z,54.60
2019-03-24T04:22:41.318Z,54.17
2019-03-24T04:25:07.902Z,54.33
2019-03-24T04:27:34.518Z,54.26
2019-03-24T04:30:01.093Z,53.17
2019-03-24T04:32:27.694Z,53.21
2019-03-24T04:34:54.277Z,53.52
2019-03-24T04:37:20.900Z,57.23
2019-03-24T04:39:47.489Z,55.34
2019-03-24T04:42:14.179Z,55.51
2019-03-24T04:44:40.761Z,54.62
2019-03-24T04:47:16.367Z,55.35
2019-03-24T04:49:35.657Z,54.40
2019-03-24T04:52:02.284Z,57.17
2019-03-24T04:54:28.868Z,55.68
2019-03-24T04:56:55.440Z,57.53
2019-03-24T04:59:22.031Z,57.41
2019-03-24T05:01:48.608Z,56.98
2019-03-24T05:04:15.192Z,57.55
2019-03-24T05:06:41.767Z,58.76
2019-03-24T05:09:08.346Z,57.01
2019-03-24T05:11:34.935Z,58.54
2019-03-24T05:14:01.517Z,57.50
2019-03-24T05:16:28.097Z,58.61
2019-03-24T05:18:54.684Z,57.08
2019-03-24T05:21:21.258Z,57.69
2019-03-24T05:23:47.848Z,59.63
2019-03-24T05:26:14.457Z,58.51
2019-03-24T05:28:41.034Z,58.83
2019-03-24T05:31:07.613Z,59.40
2019-03-24T05:33:34.188Z,58.86
2019-03-24T05:36:00.766Z,60.69
2019-03-24T05:38:27.345Z,57.15
2019-03-24T05:40:53.923Z,57.09
2019-03-24T05:43:20.550Z,56.40
2019-03-24T05:45:47.141Z,56.51
2019-03-24T05:48:13.733Z,58.39
2019-03-24T05:50:40.317Z,58.03
2019-03-24T05:53:06.896Z,56.21
2019-03-24T05:55:33.477Z,56.11
2019-03-24T05:58:00.174Z,56.07
2019-03-24T06:00:26.744Z,56.21
2019-03-24T06:02:53.326Z,55.58
2019-03-24T06:05:19.895Z,55.75
2019-03-24T06:07:46.490Z,56.01
2019-03-24T06:10:13.084Z,55.85
2019-03-24T06:12:39.652Z,55.56
2019-03-24T06:15:06.235Z,55.08
2019-03-24T06:17:32.835Z,54.99
2019-03-24T06:19:59.423Z,55.32
2019-03-24T06:22:26.001Z,54.67
2019-03-24T06:24:52.614Z,54.98
2019-03-24T06:27:19.191Z,54.65
2019-03-24T06:29:45.792Z,54.21
2019-03-24T06:32:12.371Z,54.18
2019-03-24T06:34:38.976Z,54.15
2019-03-24T06:37:05.550Z,54.24
2019-03-24T06:39:32.176Z,55.51
2019-03-24T06:41:58.753Z,55.82
2019-03-24T06:44:25.362Z,55.85
2019-03-24T06:46:51.930Z,55.44
2019-03-24T06:49:18.529Z,55.05
2019-03-24T06:51:45.109Z,55.55
2019-03-24T06:54:11.734Z,56.91
2019-03-24T06:56:38.309Z,54.80
2019-03-24T06:59:04.926Z,56.13
2019-03-24T07:01:31.497Z,54.52
2019-03-24T07:03:58.104Z,54.43
2019-03-24T07:06:24.682Z,53.83
2019-03-24T07:08:51.312Z,53.77
2019-03-24T07:11:17.959Z,53.44
2019-03-24T07:13:44.602Z,53.24
2019-03-24T07:16:11.185Z,53.12
2019-03-24T07:18:37.815Z,52.54
2019-03-24T07:21:04.391Z,52.15
2019-03-24T07:23:31.007Z,51.94
2019-03-24T07:25:57.578Z,51.62
2019-03-24T07:28:25.043Z,51.54
2019-03-24T07:30:51.750Z,50.92
2019-03-24T07:33:18.382Z,50.74
2019-03-24T07:35:44.948Z,50.48
2019-03-24T07:38:11.586Z,50.68
2019-03-24T07:40:38.173Z,50.17
2019-03-24T07:43:04.748Z,50.23
2019-03-24T07:45:31.320Z,49.95
2019-03-24T07:47:57.898Z,49.84
2019-03-24T07:50:24.480Z,49.69
2019-03-24T07:52:51.061Z,49.57
2019-03-24T07:55:17.641Z,49.48
2019-03-24T07:57:44.225Z,49.41
2019-03-24T08:00:10.805Z,49.20
2019-03-24T08:02:37.385Z,48.73
2019-03-24T08:05:03.985Z,48.53
2019-03-24T08:07:30.576Z,48.20
2019-03-24T08:09:57.199Z,48.06
2019-03-24T08:12:23.784Z,47.86
2019-03-24T08:14:50.359Z,47.50
2019-03-24T08:17:16.940Z,47.17
2019-03-24T08:19:43.518Z,46.99
2019-03-24T08:22:10.094Z,46.94
2019-03-24T08:24:36.671Z,46.89
2019-03-24T08:27:03.326Z,46.75
2019-03-24T08:29:29.914Z,46.57
2019-03-24T08:31:56.502Z,46.45
2019-03-24T08:34:23.070Z,46.29
2019-03-24T08:36:49.656Z,46.07
2019-03-24T08:39:16.232Z,45.80
2019-03-24T08:41:42.802Z,45.70
2019-03-24T08:44:09.387Z,45.42
2019-03-24T08:46:35.972Z,45.23
2019-03-24T08:49:02.593Z,45.14
2019-03-24T08:51:29.151Z,45.00
2019-03-24T08:53:55.750Z,44.84
2019-03-24T08:56:22.331Z,44.72
2019-03-24T08:58:48.942Z,44.60
2019-03-24T09:01:15.517Z,44.41
2019-03-24T09:03:42.197Z,44.27
2019-03-24T09:06:08.789Z,43.99
2019-03-24T09:08:35.453Z,43.85
2019-03-24T09:11:02.033Z,43.84
2019-03-24T09:13:28.606Z,43.73
2019-03-24T09:15:55.188Z,43.65
2019-03-24T09:18:21.778Z,43.57
2019-03-24T09:20:48.366Z,43.43
2019-03-24T09:23:14.947Z,43.38
2019-03-24T09:25:41.518Z,43.37
2019-03-24T09:28:09.197Z,43.23
2019-03-24T09:30:36.116Z,42.97
2019-03-24T09:33:02.724Z,42.75
2019-03-24T09:35:29.334Z,42.78
2019-03-24T09:37:55.901Z,42.63
2019-03-24T09:40:22.517Z,42.41
2019-03-24T09:42:49.092Z,42.19
2019-03-24T09:45:15.762Z,41.98
2019-03-24T09:47:42.379Z,41.81
2019-03-24T09:50:09.034Z,41.05
2019-03-24T09:52:35.612Z,40.86
2019-03-24T09:55:02.243Z,39.63
2019-03-24T09:57:28.814Z,39.71
2019-03-24T09:59:55.435Z,39.56
2019-03-24T10:02:22.015Z,38.89
2019-03-24T10:04:48.627Z,38.37
2019-03-24T10:07:15.213Z,38.31
2019-03-24T10:09:41.825Z,36.58
2019-03-24T10:12:08.429Z,36.88
2019-03-24T10:14:35.036Z,36.57
2019-03-24T10:17:01.720Z,35.81
2019-03-24T10:19:28.344Z,33.02
2019-03-24T10:21:54.921Z,34.45
2019-03-24T10:24:21.537Z,33.13
2019-03-24T10:26:48.114Z,32.58
2019-03-24T10:29:14.724Z,33.32
2019-03-24T10:31:42.627Z,33.07
2019-03-24T10:34:09.644Z,32.64
2019-03-24T10:36:36.216Z,32.50
2019-03-24T10:39:02.800Z,31.70
2019-03-24T10:41:29.392Z,30.97
2019-03-24T10:43:55.963Z,30.52
2019-03-24T10:46:22.553Z,29.90
2019-03-24T10:48:49.169Z,27.70
2019-03-24T10:51:15.759Z,28.97
2019-03-24T10:53:42.332Z,29.39
2019-03-24T10:56:08.915Z,30.07
2019-03-24T10:58:35.580Z,28.69
2019-03-24T11:01:02.206Z,29.69
2019-03-24T11:03:28.783Z,29.67
2019-03-24T11:05:55.370Z,27.61
2019-03-24T11:08:21.955Z,27.85
2019-03-24T11:10:48.538Z,23.94
2019-03-24T11:13:15.114Z,26.97
2019-03-24T11:15:41.691Z,25.86
2019-03-24T11:18:08.261Z,25.42
2019-03-24T11:20:34.879Z,24.90
2019-03-24T11:23:01.455Z,24.06
2019-03-24T11:25:28.066Z,22.67
2019-03-24T11:27:54.639Z,22.62
2019-03-24T11:30:21.251Z,22.56
2019-03-24T11:32:47.832Z,20.84
2019-03-24T11:35:14.421Z,21.41
2019-03-24T11:37:41.007Z,21.31
2019-03-24T11:40:07.626Z,20.51
2019-03-24T11:42:34.195Z,20.58
2019-03-24T11:45:00.866Z,20.78
2019-03-24T11:47:27.565Z,20.36
2019-03-24T11:49:54.174Z,20.49
2019-03-24T11:52:23.003Z,20.43
2019-03-24T11:54:49.593Z,19.77
2019-03-24T11:57:16.164Z,18.68
2019-03-24T11:59:42.739Z,17.32
2019-03-24T12:02:09.323Z,18.05
2019-03-24T12:04:35.902Z,18.53
2019-03-24T12:07:02.484Z,18.82
2019-03-24T12:09:29.070Z,19.02
2019-03-24T12:11:55.640Z,18.66
2019-03-24T12:14:22.236Z,18.55
2019-03-24T12:16:48.810Z,18.56
2019-03-24T12:19:15.390Z,18.30
2019-03-24T12:21:41.970Z,17.50
2019-03-24T12:24:08.540Z,16.24
2019-03-24T12:26:35.125Z,15.41
2019-03-24T12:29:01.687Z,15.18
2019-03-24T12:31:28.266Z,14.09
2019-03-24T12:33:54.829Z,10.74
2019-03-24T12:36:21.422Z,12.60
2019-03-24T12:38:47.987Z,12.12
2019-03-24T12:41:14.593Z,11.00
2019-03-24T12:43:41.189Z,10.65
2019-03-24T12:46:07.809Z,9.53
2019-03-24T12:48:34.382Z,9.73
2019-03-24T12:51:00.968Z,9.21
2019-03-24T12:53:27.547Z,7.66
2019-03-24T12:55:54.157Z,8.06
2019-03-24T12:58:20.752Z,8.13
2019-03-24T13:00:47.358Z,6.94
2019-03-24T13:03:13.916Z,7.46
2019-03-24T13:05:40.491Z,7.18
2019-03-24T13:08:07.059Z,6.48
2019-03-24T13:10:33.631Z,6.86
2019-03-24T13:13:00.202Z,6.46
2019-03-24T13:15:26.780Z,6.20
2019-03-24T13:17:53.351Z,5.78
2019-03-24T13:20:35.239Z,3.42
2019-03-24T13:22:48.234Z,5.72
2019-03-24T13:25:14.801Z,5.69
2019-03-24T13:27:41.422Z,5.82
2019-03-24T13:30:08.034Z,5.65
2019-03-24T13:32:34.647Z,5.61
2019-03-24T13:35:01.219Z,4.89
2019-03-24T13:37:27.803Z,5.14
2019-03-24T13:39:54.368Z,4.57
2019-03-24T13:42:20.981Z,5.01
2019-03-24T13:44:47.547Z,4.99
2019-03-24T13:47:14.142Z,4.99
2019-03-24T13:49:40.702Z,3.05
2019-03-24T13:52:07.295Z,4.80
2019-03-24T13:54:33.854Z,4.43
2019-03-24T13:57:00.477Z,4.49
2019-03-24T13:59:27.053Z,4.49
2019-03-24T14:01:53.638Z,4.63
2019-03-24T14:04:20.206Z,4.90
2019-03-24T14:06:46.801Z,4.96
2019-03-24T14:09:13.370Z,4.78
2019-03-24T14:11:39.983Z,4.98
2019-03-24T14:14:06.563Z,4.61
2019-03-24T14:16:33.156Z,4.67
2019-03-24T14:18:59.828Z,4.73
2019-03-24T14:21:26.421Z,4.64
2019-03-24T14:23:53.027Z,4.51
2019-03-24T14:26:19.591Z,4.61
2019-03-24T14:28:46.167Z,4.16
2019-03-24T14:31:12.737Z,3.83
2019-03-24T14:33:39.314Z,4.86
2019-03-24T14:36:05.883Z,4.83
2019-03-24T14:38:32.634Z,4.89
2019-03-24T14:40:59.205Z,4.98
2019-03-24T14:43:25.774Z,5.05
2019-03-24T14:45:52.342Z,5.09
2019-03-24T14:48:18.909Z,5.19
2019-03-24T14:50:54.079Z,5.24
2019-03-24T14:53:13.793Z,5.24
2019-03-24T14:55:40.365Z,5.14
2019-03-24T14:58:06.934Z,5.23
2019-03-24T15:00:33.510Z,4.58
2019-03-24T15:03:00.079Z,5.61
2019-03-24T15:05:26.641Z,5.75
2019-03-24T15:07:53.220Z,5.74
2019-03-24T15:10:19.795Z,5.61
2019-03-24T15:12:46.362Z,5.50
2019-03-24T15:15:12.933Z,5.26
2019-03-24T15:17:39.509Z,5.26
2019-03-24T15:20:06.090Z,5.47
2019-03-24T15:22:32.659Z,5.46
2019-03-24T15:24:59.229Z,6.01
2019-03-24T15:27:25.809Z,6.51
2019-03-24T15:29:52.381Z,7.28
2019-03-24T15:32:18.950Z,8.08
2019-03-24T15:34:45.528Z,8.66
2019-03-24T15:37:12.103Z,9.22
2019-03-24T15:39:38.672Z,9.86
2019-03-24T15:42:05.250Z,10.48
2019-03-24T15:44:31.830Z,11.14
2019-03-24T15:46:58.403Z,11.54
2019-03-24T15:49:24.995Z,12.06
2019-03-24T15:51:51.562Z,12.66
2019-03-24T15:54:18.182Z,13.09
2019-03-24T15:56:44.772Z,13.53
2019-03-24T15:59:11.383Z,13.95
2019-03-24T16:01:37.980Z,14.35
2019-03-24T16:04:04.594Z,14.63
2019-03-24T16:06:31.184Z,14.96
2019-03-24T16:08:57.779Z,15.34
2019-03-24T16:11:24.352Z,15.74
2019-03-24T16:13:50.966Z,15.98
2019-03-24T16:16:17.543Z,16.11
2019-03-24T16:18:44.154Z,16.53
2019-03-24T16:21:10.723Z,17.02
2019-03-24T16:23:37.386Z,17.45
2019-03-24T16:26:04.017Z,17.96
2019-03-24T16:28:30.618Z,18.24
2019-03-24T16:30:57.201Z,18.48
2019-03-24T16:33:23.804Z,18.59
2019-03-24T16:35:50.458Z,19.01
2019-03-24T16:38:17.094Z,19.12
2019-03-24T16:40:43.675Z,19.54
2019-03-24T16:43:11.365Z,19.59
2019-03-24T16:45:38.037Z,19.90
2019-03-24T16:48:04.626Z,20.22
2019-03-24T16:50:31.197Z,20.52
2019-03-24T16:52:57.800Z,20.63
2019-03-24T16:55:24.369Z,21.05
2019-03-24T16:57:50.984Z,21.63
2019-03-24T17:00:18.616Z,21.43
2019-03-24T17:02:45.222Z,21.44
2019-03-24T17:05:11.802Z,21.70
2019-03-24T17:07:38.393Z,21.78
2019-03-24T17:10:04.967Z,22.09
2019-03-24T17:12:31.540Z,22.09
2019-03-24T17:14:58.126Z,22.33
2019-03-24T17:17:24.707Z,23.61
2019-03-24T17:19:51.276Z,22.94
2019-03-24T17:22:17.850Z,23.58
2019-03-24T17:24:44.450Z,23.19
2019-03-24T17:27:11.029Z,23.08
2019-03-24T17:29:37.620Z,23.59
2019-03-24T17:32:04.190Z,23.28
2019-03-24T17:34:30.767Z,23.65
2019-03-24T17:36:57.437Z,24.15
2019-03-24T17:39:23.985Z,24.19
2019-03-24T17:41:50.585Z,24.47
2019-03-24T17:44:17.159Z,25.17
2019-03-24T17:46:43.779Z,25.56
2019-03-24T17:49:10.385Z,25.81
2019-03-24T17:51:36.949Z,25.54
2019-03-24T17:54:03.531Z,25.90
2019-03-24T17:56:30.105Z,26.30
2019-03-24T17:58:56.684Z,25.57
2019-03-24T18:01:23.255Z,25.11
2019-03-24T18:03:49.829Z,25.06
2019-03-24T18:06:16.400Z,25.02
2019-03-24T18:08:42.981Z,24.92
2019-03-24T18:11:09.546Z,25.33
2019-03-24T18:13:36.126Z,25.17
2019-03-24T18:16:02.732Z,25.21
2019-03-24T18:18:29.455Z,25.93
2019-03-24T18:20:56.655Z,25.65
2019-03-24T18:23:23.269Z,25.97
2019-03-24T18:25:49.843Z,25.70
2019-03-24T18:28:16.453Z,25.84
2019-03-24T18:30:43.024Z,25.66
2019-03-24T18:33:09.628Z,25.82
2019-03-24T18:35:36.202Z,25.86
2019-03-24T18:38:02.815Z,26.36
2019-03-24T18:40:29.395Z,26.28
2019-03-24T18:42:56.033Z,26.44
2019-03-24T18:45:22.607Z,26.59
2019-03-24T18:47:49.234Z,27.28
2019-03-24T18:50:15.828Z,26.83
2019-03-24T18:52:42.402Z,27.92
2019-03-24T18:55:08.995Z,27.12
2019-03-24T18:57:35.574Z,27.48
2019-03-24T19:00:02.198Z,27.35
2019-03-24T19:02:28.785Z,27.54
2019-03-24T19:04:55.396Z,27.71
2019-03-24T19:07:21.970Z,27.89
2019-03-24T19:09:48.561Z,27.91
2019-03-24T19:12:15.143Z,28.26
2019-03-24T19:14:41.756Z,27.95
2019-03-24T19:17:10.125Z,27.93
2019-03-24T19:19:36.659Z,28.19
2019-03-24T19:22:03.265Z,28.59
2019-03-24T19:24:29.863Z,30.05
2019-03-24T19:26:56.435Z,29.15
2019-03-24T19:29:23.051Z,29.00
2019-03-24T19:31:49.636Z,29.74
2019-03-24T19:34:16.233Z,30.54
2019-03-24T19:36:42.840Z,29.80
2019-03-24T19:39:09.450Z,29.79
2019-03-24T19:41:36.040Z,30.06
2019-03-24T19:44:02.736Z,30.75
2019-03-24T19:46:29.320Z,30.17
2019-03-24T19:48:55.908Z,30.92
2019-03-24T19:51:22.486Z,30.90
2019-03-24T19:53:49.068Z,30.54
2019-03-24T19:56:15.652Z,30.42
2019-03-24T19:58:42.239Z,30.37
2019-03-24T20:01:08.814Z,30.52
2019-03-24T20:03:36.394Z,30.58
2019-03-24T20:06:02.974Z,30.95
2019-03-24T20:08:29.546Z,30.81
2019-03-24T20:10:57.124Z,30.72
2019-03-24T20:13:23.702Z,30.95
2019-03-24T20:15:50.281Z,32.01
2019-03-24T20:18:16.854Z,32.00
2019-03-24T20:20:43.451Z,32.33
2019-03-24T20:23:10.021Z,31.96
2019-03-24T20:25:36.594Z,32.15
2019-03-24T20:28:03.177Z,32.06
2019-03-24T20:30:29.789Z,31.92
2019-03-24T20:32:56.366Z,31.99
2019-03-24T20:35:22.974Z,32.01
2019-03-24T20:37:49.557Z,31.79
2019-03-24T20:40:16.154Z,32.11
2019-03-24T20:42:42.737Z,31.81
2019-03-24T20:45:09.348Z,31.81
2019-03-24T20:47:35.929Z,32.53
2019-03-24T20:50:03.804Z,32.38
2019-03-24T20:52:30.508Z,32.59
2019-03-24T20:54:57.121Z,33.05
2019-03-24T20:57:23.701Z,32.64
2019-03-24T20:59:52.092Z,33.05
2019-03-24T21:02:18.621Z,33.00
2019-03-24T21:04:45.368Z,32.94
2019-03-24T21:07:12.002Z,33.28
2019-03-24T21:09:39.684Z,33.23
2019-03-24T21:12:06.248Z,33.33
2019-03-24T21:14:32.829Z,33.66
2019-03-24T21:16:59.409Z,33.31
2019-03-24T21:19:26.005Z,33.92
2019-03-24T21:21:52.604Z,33.55
2019-03-24T21:24:19.186Z,35.58
2019-03-24T21:26:45.881Z,35.10
2019-03-24T21:29:12.471Z,34.59
2019-03-24T21:31:39.052Z,34.19
2019-03-24T21:34:05.645Z,34.36
2019-03-24T21:36:32.212Z,34.38
2019-03-24T21:38:58.824Z,34.64
2019-03-24T21:41:25.434Z,34.94
2019-03-24T21:43:52.012Z,34.86
2019-03-24T21:46:18.642Z,35.06
2019-03-24T21:48:45.212Z,34.74
2019-03-24T21:51:11.836Z,35.31
2019-03-24T21:53:40.819Z,34.90
2019-03-24T21:56:06.740Z,36.22
2019-03-24T21:58:33.316Z,35.42
2019-03-24T22:00:59.926Z,36.64
2019-03-24T22:03:26.506Z,35.87
2019-03-24T22:05:53.127Z,35.63
2019-03-24T22:08:19.715Z,35.43
2019-03-24T22:10:46.322Z,36.30
2019-03-24T22:13:12.909Z,35.91
2019-03-24T22:15:39.515Z,36.11
2019-03-24T22:18:06.089Z,37.03
2019-03-24T22:20:32.704Z,36.31
2019-03-24T22:22:59.269Z,36.57
2019-03-24T22:25:25.891Z,36.37
2019-03-24T22:27:52.470Z,37.18
2019-03-24T22:30:19.045Z,37.37
2019-03-24T22:32:45.618Z,37.12
2019-03-24T22:35:12.189Z,37.45
2019-03-24T22:37:38.767Z,37.82
2019-03-24T22:40:05.347Z,37.08
2019-03-24T22:42:31.927Z,37.65
2019-03-24T22:44:58.499Z,37.70
2019-03-24T22:47:25.094Z,37.65
2019-03-24T22:49:51.665Z,40.07
2019-03-24T22:52:18.280Z,38.36
2019-03-24T22:54:44.894Z,38.85
2019-03-24T22:57:11.495Z,38.50
2019-03-24T22:59:38.073Z,38.56
2019-03-24T23:02:04.680Z,38.97
2019-03-24T23:04:31.260Z,40.02
2019-03-24T23:06:57.864Z,41.27
2019-03-24T23:09:24.439Z,41.45
2019-03-24T23:11:51.092Z,41.95
2019-03-24T23:14:17.671Z,41.66
2019-03-24T23:16:44.277Z,41.48
2019-03-24T23:19:10.865Z,43.03
2019-03-24T23:21:37.465Z,42.41
2019-03-24T23:24:14.967Z,42.20
2019-03-24T23:26:32.368Z,42.40
2019-03-24T23:28:58.938Z,42.58
2019-03-24T23:31:25.738Z,42.52
2019-03-24T23:33:52.313Z,42.11
2019-03-24T23:36:18.926Z,42.77
2019-03-24T23:38:45.501Z,43.49
2019-03-24T23:41:12.070Z,43.68
2019-03-24T23:43:38.647Z,43.47
2019-03-24T23:46:05.229Z,43.04
2019-03-24T23:48:31.800Z,43.57
2019-03-24T23:50:58.427Z,43.38
2019-03-24T23:53:25.009Z,44.09
2019-03-24T23:55:51.660Z,43.90
2019-03-24T23:58:18.235Z,43.65
